Time;durP1;ratioP1;P1;durP2;ratioP2;P2;SDS_P1;SDS_P2;PMS_P1;PMS_P2;Temp;Humidity;BMP_temperature;BMP_pressure;BME280_temperature;BME280_humidity;BME280_pressure;Samples;Min_cycle;Max_cycle;Signal;HPM_P1;HPM_P2
2022/12/29 00:00:53;;;;;;;56.50;28.60;;;;;;;-1.06;95.66;101234.37;1378132;89;21615;-86
2022/12/29 00:03:19;;;;;;;50.00;25.50;;;;;;;-1.07;95.94;101230.05;1502252;89;21301;-87
2022/12/29 00:05:57;;;;;;;53.28;27.25;;;;;;;-1.09;95.50;101229.25;1378737;88;21465;-88
2022/12/29 00:08:39;;;;;;;52.40;26.57;;;;;;;-1.11;95.35;101227.17;1492588;90;21294;-90
2022/12/29 00:10:51;;;;;;;54.50;24.18;;;;;;;-1.16;95.54;101235.95;1376829;90;21398;-88
2022/12/29 00:16:02;;;;;;;45.80;24.72;;;;;;;-1.20;95.40;101243.47;1534129;90;21244;-89
2022/12/29 00:18:28;;;;;;;50.23;26.17;;;;;;;-1.22;95.32;101245.27;1377781;90;21376;-87
2022/12/29 00:44:04;;;;;;;38.10;20.30;;;;;;;-1.38;95.12;101244.95;1457899;90;22176;-84
2022/12/29 00:45:12;;;;;;;38.70;21.20;;;;;;;-1.54;94.83;101228.17;1453851;90;21619;-85
2022/12/29 00:47:38;;;;;;;41.80;22.70;;;;;;;-1.57;94.80;101231.34;1447110;90;21434;-87
2022/12/29 00:50:05;;;;;;;37.35;20.77;;;;;;;-1.60;94.96;101229.68;1451492;90;21619;-87
2022/12/29 00:52:31;;;;;;;45.78;23.20;;;;;;;-1.65;95.18;101227.68;1451105;90;21317;-87
2022/12/29 00:54:57;;;;;;;43.28;22.48;;;;;;;-1.66;95.24;101236.38;1488451;90;21317;-90
2022/12/29 00:57:23;;;;;;;48.15;22.17;;;;;;;-1.68;95.38;101239.46;1533859;90;21361;-89
2022/12/29 00:59:50;;;;;;;43.65;26.05;;;;;;;-1.68;95.46;101245.95;1377998;90;21272;-87
2022/12/29 01:02:16;;;;;;;49.88;25.40;;;;;;;-1.71;95.53;101248.65;1401906;89;21531;-90
2022/12/29 01:04:42;;;;;;;45.83;22.50;;;;;;;-1.76;95.61;101237.56;1535027;89;21317;-87
2022/12/29 01:07:08;;;;;;;34.03;20.95;;;;;;;-1.86;96.80;101240.45;1379736;89;21369;-93
2022/12/29 01:12:40;;;;;;;36.20;21.02;;;;;;;-1.95;96.95;101238.16;1530888;89;21303;-84
2022/12/29 01:14:47;;;;;;;36.08;20.30;;;;;;;-2.00;96.99;101242.63;1414045;89;21420;-86
2022/12/29 01:17:14;;;;;;;44.03;21.80;;;;;;;-2.07;96.87;101238.55;1448130;89;22442;-86
2022/12/29 01:19:40;;;;;;;39.53;20.15;;;;;;;-2.11;96.87;101243.41;1444181;89;21368;-86
2022/12/29 01:22:06;;;;;;;42.88;22.75;;;;;;;-2.13;96.51;101242.59;1442918;89;21368;-85
2022/12/29 01:24:32;;;;;;;46.30;24.55;;;;;;;-2.15;96.14;101245.70;1442379;89;21428;-86
2022/12/29 01:26:58;;;;;;;46.80;25.57;;;;;;;-2.15;96.26;101239.22;1452503;89;21316;-87
2022/12/29 01:29:25;;;;;;;44.18;23.83;;;;;;;-2.15;96.23;101236.63;1453036;89;21622;-85
2022/12/29 01:31:51;;;;;;;41.42;23.15;;;;;;;-2.15;96.15;101234.03;1455260;89;21621;-85
2022/12/29 01:34:18;;;;;;;47.58;26.62;;;;;;;-2.16;96.10;101237.50;1445063;89;21449;-85
2022/12/29 01:36:44;;;;;;;47.17;25.70;;;;;;;-2.18;95.95;101235.42;1446890;90;21553;-88
2022/12/29 01:39:10;;;;;;;46.40;23.32;;;;;;;-2.22;96.44;101233.34;1439317;90;22350;-87
2022/12/29 01:41:37;;;;;;;46.15;23.92;;;;;;;-2.22;96.07;101237.69;1447705;89;21464;-86
2022/12/29 01:44:23;;;;;;;43.73;25.00;;;;;;;-2.21;96.08;101232.47;1452079;89;21619;-87
2022/12/29 01:46:51;;;;;;;40.67;24.87;;;;;;;-2.24;96.03;101241.64;1454201;89;21390;-85
2022/12/29 01:49:22;;;;;;;39.50;22.60;;;;;;;-2.24;95.82;101240.77;1442998;89;22400;-89
2022/12/29 01:51:59;;;;;;;35.23;17.92;;;;;;;-2.25;95.62;101238.62;1448987;89;21434;-81
2022/12/29 01:54:43;;;;;;;44.13;23.55;;;;;;;-2.28;95.80;101234.83;1448884;89;21368;-88
2022/12/29 01:57:14;;;;;;;42.48;23.42;;;;;;;-2.31;95.84;101232.34;1445939;89;21419;-91
2022/12/29 01:59:48;;;;;;;48.87;26.00;;;;;;;-2.30;95.78;101238.78;1453325;89;22414;-85
2022/12/29 02:02:14;;;;;;;38.50;23.02;;;;;;;-2.33;95.62;101229.80;1457454;89;22340;-86
2022/12/29 02:04:45;;;;;;;46.02;23.52;;;;;;;-2.32;95.53;101229.35;1449761;88;21568;-86
2022/12/29 02:07:21;;;;;;;43.10;22.73;;;;;;;-2.34;95.65;101224.20;1453056;89;21575;-88
2022/12/29 02:09:50;;;;;;;47.95;23.90;;;;;;;-2.34;95.71;101222.90;1450207;90;21575;-88
2022/12/29 02:12:19;;;;;;;45.30;22.60;;;;;;;-2.36;95.33;101220.83;1445439;89;21484;-84
2022/12/29 02:14:47;;;;;;;48.08;24.92;;;;;;;-2.36;95.15;101215.64;1447947;90;21338;-88
2022/12/29 02:17:48;;;;;;;47.17;23.85;;;;;;;-2.36;95.00;101210.45;1453254;90;22426;-86
2022/12/29 02:21:09;;;;;;;53.28;24.63;;;;;;;-2.39;94.85;101213.11;1454109;89;21435;-82
2022/12/29 02:24:01;;;;;;;63.00;30.08;;;;;;;-2.40;95.08;101211.42;1450572;90;21324;-84
2022/12/29 02:26:42;;;;;;;65.65;31.02;;;;;;;-2.41;95.27;101207.59;1445613;88;21353;-86
2022/12/29 02:29:37;;;;;;;65.22;31.65;;;;;;;-2.44;94.99;101198.61;1450524;90;22388;-84
2022/12/29 02:32:12;;;;;;;69.35;30.95;;;;;;;-2.44;95.02;101194.27;1452344;89;21779;-84
2022/12/29 02:34:46;;;;;;;62.08;32.05;;;;;;;-2.45;95.06;101190.41;1449476;90;21627;-85
2022/12/29 02:37:24;;;;;;;65.22;30.35;;;;;;;-2.45;95.09;101186.08;1448273;89;22373;-83
2022/12/29 02:40:11;;;;;;;59.13;31.48;;;;;;;-2.45;95.18;101178.30;1451466;90;22768;-86
2022/12/29 02:42:42;;;;;;;53.98;28.02;;;;;;;-2.45;95.23;101178.75;1448338;89;21493;-85
2022/12/29 02:45:14;;;;;;;51.85;29.82;;;;;;;-2.47;95.92;101174.92;1452836;89;21663;-87
2022/12/29 02:48:01;;;;;;;57.25;29.07;;;;;;;-2.48;95.43;101175.80;1455221;90;21471;-88
2022/12/29 02:50:38;;;;;;;69.17;32.30;;;;;;;-2.48;95.55;101180.98;1451750;90;21634;-84
2022/12/29 02:53:10;;;;;;;56.70;29.63;;;;;;;-2.49;95.59;101178.00;1451114;90;21383;-89
2022/12/29 02:55:36;;;;;;;58.77;28.03;;;;;;;-2.48;95.45;101182.28;1454520;90;21456;-86
2022/12/29 02:58:17;;;;;;;56.13;29.77;;;;;;;-2.50;95.34;101177.61;1447864;90;21331;-91
2022/12/29 03:00:57;;;;;;;55.23;29.52;;;;;;;-2.52;95.30;101171.62;1449272;90;21302;-89
2022/12/29 03:04:06;;;;;;;51.85;27.15;;;;;;;-2.54;95.30;101155.25;1447386;89;22285;-82
2022/12/29 03:06:51;;;;;;;47.08;26.20;;;;;;;-2.57;94.73;101151.01;1454110;90;21412;-90
2022/12/29 03:09:35;;;;;;;54.08;28.90;;;;;;;-2.61;94.70;101149.88;1449753;89;21752;-92
2022/12/29 03:18:29;;;;;;;49.00;24.87;;;;;;;-2.70;94.93;101159.19;1446093;90;21699;-90
2022/12/29 03:21:04;;;;;;;37.20;21.95;;;;;;;-2.74;95.82;101159.73;1449042;89;21987;-91
2022/12/29 03:23:33;;;;;;;52.35;24.18;;;;;;;-2.77;97.01;101165.00;1454389;90;21427;-84
2022/12/29 03:26:04;;;;;;;45.98;24.57;;;;;;;-2.78;96.48;101160.27;1440438;90;21568;-92
2022/12/29 03:28:41;;;;;;;39.50;20.55;;;;;;;-2.77;96.18;101159.37;1447518;90;21405;-85
2022/12/29 03:31:09;;;;;;;36.55;20.35;;;;;;;-2.79;95.77;101157.30;1447534;90;21605;-92
2022/12/29 03:33:37;;;;;;;37.90;21.45;;;;;;;-2.80;95.72;101162.05;1442635;90;22212;-85
2022/12/29 03:36:08;;;;;;;31.75;17.92;;;;;;;-2.82;96.09;101169.05;1446978;90;21460;-85
2022/12/29 03:38:49;;;;;;;30.40;19.70;;;;;;;-2.83;96.12;101167.33;1377212;91;21346;-84
2022/12/29 03:41:20;;;;;;;41.90;20.52;;;;;;;-2.81;96.25;101172.48;1380963;90;21317;-85
2022/12/29 03:43:47;;;;;;;32.75;18.42;;;;;;;-2.77;96.35;101174.92;1375206;90;21235;-91
2022/12/29 03:46:13;;;;;;;31.75;17.65;;;;;;;-2.75;96.30;101167.11;1377402;90;21242;-89
2022/12/29 03:48:39;;;;;;;29.92;17.35;;;;;;;-2.75;96.25;101157.59;1378098;90;21550;-87
2022/12/29 03:51:05;;;;;;;31.52;18.00;;;;;;;-2.75;95.84;101167.11;1533982;90;21141;-89
2022/12/29 03:53:31;;;;;;;38.08;19.80;;;;;;;-2.78;95.78;101165.91;1377895;90;21398;-85
2022/12/29 03:55:58;;;;;;;30.10;17.73;;;;;;;-2.84;96.21;101157.02;1378027;90;21176;-84
2022/12/29 03:58:24;;;;;;;33.65;20.32;;;;;;;-2.85;95.84;101165.67;1383377;90;21634;-85
2022/12/29 04:00:50;;;;;;;34.25;18.77;;;;;;;-2.88;95.86;101171.78;1377716;90;22153;-87
2022/12/29 04:03:16;;;;;;;31.35;17.52;;;;;;;-2.89;95.59;101174.44;1384565;89;21373;-88
2022/12/29 04:05:43;;;;;;;32.05;18.23;;;;;;;-2.88;95.41;101173.08;1528398;90;21258;-84
2022/12/29 04:08:09;;;;;;;30.82;18.62;;;;;;;-2.89;95.47;101169.25;1379356;90;21362;-88
2022/12/29 04:10:35;;;;;;;33.18;18.07;;;;;;;-2.90;95.26;101160.64;1378967;90;22066;-89
2022/12/29 04:13:01;;;;;;;28.23;17.30;;;;;;;-2.92;95.06;101159.83;1378127;90;21236;-84
2022/12/29 04:15:27;;;;;;;34.53;18.52;;;;;;;-2.92;94.89;101153.80;1378310;90;21228;-85
2022/12/29 04:17:53;;;;;;;32.23;19.12;;;;;;;-2.95;94.64;101152.14;1434534;90;22316;-85
2022/12/29 04:23:06;;;;;;;41.25;20.95;;;;;;;-2.99;94.53;101171.27;1454879;90;21405;-87
2022/12/29 04:25:33;;;;;;;36.33;20.65;;;;;;;-3.01;95.07;101180.81;1375914;90;21548;-86
2022/12/29 04:28:01;;;;;;;37.58;19.25;;;;;;;-3.07;95.77;101187.46;1367156;90;22375;-86
2022/12/29 04:30:28;;;;;;;38.38;19.70;;;;;;;-3.13;96.06;101183.30;1384382;90;22250;-82
2022/12/29 04:32:54;;;;;;;44.05;21.90;;;;;;;-3.13;96.13;101186.34;1377671;90;21407;-84
2022/12/29 04:35:20;;;;;;;33.20;19.05;;;;;;;-3.12;96.04;101184.14;1377273;90;21273;-85
2022/12/29 04:37:47;;;;;;;33.02;19.62;;;;;;;-3.09;95.69;101180.17;1378922;90;22086;-86
2022/12/29 04:40:13;;;;;;;32.60;19.15;;;;;;;-3.09;95.37;101180.17;1378030;90;21244;-84
2022/12/29 04:42:39;;;;;;;35.83;20.50;;;;;;;-3.11;94.99;101170.29;1520994;90;21450;-83
2022/12/29 04:45:07;;;;;;;44.85;24.57;;;;;;;-3.11;94.92;101171.14;1378679;90;21229;-87
2022/12/29 04:47:33;;;;;;;34.10;18.98;;;;;;;-3.11;94.98;101173.72;1376858;90;21228;-86
2022/12/29 04:50:02;;;;;;;38.92;19.40;;;;;;;-3.11;94.93;101178.91;1378356;90;22290;-85
2022/12/29 04:52:31;;;;;;;35.45;20.35;;;;;;;-3.10;94.94;101181.08;1374788;90;22123;-87
2022/12/29 04:54:57;;;;;;;36.38;20.40;;;;;;;-3.08;95.41;101195.69;1378965;90;21376;-85
2022/12/29 04:57:23;;;;;;;38.00;21.23;;;;;;;-3.03;95.32;101196.83;1455022;90;22087;-88
2022/12/29 04:59:50;;;;;;;35.03;18.77;;;;;;;-2.99;95.61;101194.58;1378640;90;21340;-87
2022/12/29 05:02:17;;;;;;;36.03;19.85;;;;;;;-2.98;95.28;101188.50;1401488;90;21471;-85
2022/12/29 05:04:43;;;;;;;33.45;18.15;;;;;;;-2.98;94.85;101183.31;1440132;89;21708;-85
2022/12/29 05:07:10;;;;;;;32.95;19.65;;;;;;;-3.01;94.45;101180.81;1448476;89;21346;-85
2022/12/29 05:09:36;;;;;;;36.25;19.57;;;;;;;-3.01;94.57;101175.63;1454495;89;22347;-90
2022/12/29 05:12:02;;;;;;;37.70;19.75;;;;;;;-3.01;94.44;101153.62;1448995;89;21316;-87
2022/12/29 05:14:28;;;;;;;35.98;18.80;;;;;;;-3.01;94.37;101147.98;1449408;89;22271;-89
2022/12/29 05:16:55;;;;;;;38.85;18.35;;;;;;;-3.00;94.70;101155.30;1446278;90;21396;-89
2022/12/29 05:19:21;;;;;;;46.80;18.52;;;;;;;-3.00;94.83;101149.67;1453526;89;21302;-87
2022/12/29 05:21:47;;;;;;;34.23;18.37;;;;;;;-3.00;95.37;101151.42;1449166;90;21669;-86
2022/12/29 05:24:15;;;;;;;41.92;21.93;;;;;;;-3.00;95.94;101156.14;1449686;90;22095;-88
2022/12/29 05:26:41;;;;;;;44.23;23.00;;;;;;;-2.98;95.81;101150.94;1450197;90;21279;-87
2022/12/29 05:29:08;;;;;;;40.33;20.02;;;;;;;-2.96;95.89;101152.59;1450074;89;22602;-85
2022/12/29 05:31:35;;;;;;;42.00;19.45;;;;;;;-2.94;96.33;101147.36;1448868;89;21383;-85
2022/12/29 05:34:02;;;;;;;42.62;22.22;;;;;;;-2.94;95.97;101146.06;1447493;90;22435;-89
2022/12/29 05:36:29;;;;;;;44.50;23.12;;;;;;;-2.92;95.79;101146.88;1454053;90;21426;-84
2022/12/29 05:38:55;;;;;;;45.05;22.22;;;;;;;-2.89;95.98;101135.58;1452351;89;21331;-84
2022/12/29 05:41:21;;;;;;;55.92;23.35;;;;;;;-2.87;96.29;101138.98;1447004;89;22647;-85
2022/12/29 05:43:48;;;;;;;41.23;20.60;;;;;;;-2.83;96.41;101143.16;1450757;90;21346;-86
2022/12/29 05:46:14;;;;;;;43.23;22.70;;;;;;;-2.81;96.76;101134.91;1451910;89;21826;-86
2022/12/29 05:48:40;;;;;;;35.95;20.52;;;;;;;-2.81;96.76;101139.64;1451434;89;21427;-85
2022/12/29 05:51:06;;;;;;;32.58;20.70;;;;;;;-2.79;96.70;101135.27;1454141;89;22279;-84
2022/12/29 05:53:32;;;;;;;33.75;19.23;;;;;;;-2.76;96.65;101134.34;1452052;89;21568;-85
2022/12/29 05:55:58;;;;;;;32.48;18.52;;;;;;;-2.74;96.85;101135.11;1451806;90;21374;-86
2022/12/29 05:58:24;;;;;;;36.40;19.17;;;;;;;-2.70;97.75;101143.64;1448468;90;21360;-85
2022/12/29 06:00:51;;;;;;;30.37;17.40;;;;;;;-2.66;97.60;101140.08;1451889;89;21618;-86
2022/12/29 06:03:17;;;;;;;37.15;17.80;;;;;;;-2.64;97.31;101137.84;1450193;90;21498;-84
2022/12/29 06:05:46;;;;;;;31.73;19.10;;;;;;;-2.61;97.45;101140.34;1449584;89;21657;-86
2022/12/29 06:08:13;;;;;;;35.52;19.00;;;;;;;-2.59;97.60;101141.58;1375649;90;21273;-86
2022/12/29 06:10:42;;;;;;;46.77;24.25;;;;;;;-2.58;97.62;101143.30;1515125;90;21524;-87
2022/12/29 06:13:08;;;;;;;45.55;21.30;;;;;;;-2.58;97.99;101149.32;1451003;90;21391;-85
2022/12/29 06:15:35;;;;;;;36.45;21.20;;;;;;;-2.56;97.82;101151.84;1457221;90;21528;-85
2022/12/29 06:18:02;;;;;;;50.70;24.35;;;;;;;-2.56;97.67;101150.55;1464390;89;21396;-85
2022/12/29 06:20:28;;;;;;;44.08;24.02;;;;;;;-2.54;97.55;101151.36;1461711;89;21329;-84
2022/12/29 06:22:54;;;;;;;43.95;23.85;;;;;;;-2.51;97.26;101147.38;1447675;89;21367;-82
2022/12/29 06:25:21;;;;;;;42.20;24.35;;;;;;;-2.52;96.86;101143.11;1451534;89;22438;-84
2022/12/29 06:27:47;;;;;;;45.48;24.52;;;;;;;-2.51;96.73;101148.22;1453763;90;21413;-83
2022/12/29 06:30:14;;;;;;;47.62;24.82;;;;;;;-2.53;96.68;101160.41;1450094;90;21428;-83
2022/12/29 06:32:41;;;;;;;42.95;22.13;;;;;;;-2.57;97.42;101168.30;1450518;90;21413;-83
2022/12/29 06:35:08;;;;;;;38.05;21.68;;;;;;;-2.58;97.23;101179.58;1454110;90;22498;-81
2022/12/29 06:37:34;;;;;;;38.25;21.55;;;;;;;-2.54;97.24;101174.69;1443240;90;21453;-84
2022/12/29 06:40:00;;;;;;;42.08;23.35;;;;;;;-2.48;97.36;101164.13;1452328;90;21391;-84
2022/12/29 06:42:26;;;;;;;45.52;24.15;;;;;;;-2.41;97.35;101161.77;1448974;90;21375;-85
2022/12/29 06:44:53;;;;;;;44.10;22.73;;;;;;;-2.36;96.99;101155.13;1454493;90;21316;-83
2022/12/29 06:47:19;;;;;;;48.30;25.30;;;;;;;-2.33;96.77;101155.91;1452802;90;21346;-85
2022/12/29 06:49:45;;;;;;;53.28;27.32;;;;;;;-2.30;96.47;101158.41;1448729;89;21426;-84
2022/12/29 06:52:11;;;;;;;48.98;26.70;;;;;;;-2.29;96.51;101160.09;1452740;90;21375;-83
2022/12/29 06:54:37;;;;;;;48.20;24.25;;;;;;;-2.25;96.40;101161.28;1451229;90;22353;-83
2022/12/29 06:57:03;;;;;;;55.12;23.45;;;;;;;-2.20;96.82;101162.00;1451322;90;21353;-86
2022/12/29 06:59:30;;;;;;;38.40;21.12;;;;;;;-2.13;96.92;101155.70;1454650;90;21404;-85
2022/12/29 07:01:56;;;;;;;44.15;23.25;;;;;;;-2.06;97.29;101155.92;1451388;90;21472;-83
2022/12/29 07:04:24;;;;;;;45.55;23.42;;;;;;;-1.98;97.54;101147.45;1448436;89;21332;-87
2022/12/29 07:06:50;;;;;;;39.42;24.35;;;;;;;-1.91;97.54;101143.74;1449298;90;21501;-87
2022/12/29 07:09:16;;;;;;;43.75;25.97;;;;;;;-1.87;97.52;101146.66;1445723;90;21516;-86
2022/12/29 07:11:43;;;;;;;48.73;26.73;;;;;;;-1.83;97.68;101141.74;1450834;90;21552;-87
2022/12/29 07:14:11;;;;;;;49.40;27.00;;;;;;;-1.79;97.72;101146.38;1454406;90;21383;-85
2022/12/29 07:16:38;;;;;;;36.58;20.82;;;;;;;-1.70;97.68;101147.81;1381314;90;21397;-85
2022/12/29 07:19:10;;;;;;;36.17;18.95;;;;;;;-1.61;97.72;101142.34;1378111;90;21236;-83
2022/12/29 07:21:36;;;;;;;30.45;18.35;;;;;;;-1.52;97.79;101125.59;1532109;90;21221;-86
2022/12/29 07:24:03;;;;;;;25.15;15.53;;;;;;;-1.44;97.99;101117.06;1383857;90;21265;-83
2022/12/29 07:26:29;;;;;;;30.23;16.57;;;;;;;-1.38;97.87;101117.71;1377281;90;22220;-83
2022/12/29 07:28:56;;;;;;;28.38;17.37;;;;;;;-1.30;97.97;101120.02;1378305;90;21457;-85
2022/12/29 07:31:23;;;;;;;30.77;17.93;;;;;;;-1.24;97.75;101121.09;1378575;90;22301;-81
2022/12/29 07:33:49;;;;;;;32.20;18.43;;;;;;;-1.17;97.97;101117.84;1378192;90;21569;-83
2022/12/29 07:36:16;;;;;;;26.73;16.30;;;;;;;-1.06;98.18;101109.66;1377590;90;21398;-82
2022/12/29 07:38:43;;;;;;;32.27;17.90;;;;;;;-0.97;97.93;101106.71;1376650;90;21545;-84
2022/12/29 07:41:10;;;;;;;41.43;20.87;;;;;;;-0.85;98.14;101105.40;1385453;89;21514;-86
2022/12/29 07:43:36;;;;;;;38.37;19.60;;;;;;;-0.75;97.86;101105.00;1378428;90;21644;-84
2022/12/29 07:46:02;;;;;;;36.63;21.80;;;;;;;-0.67;97.04;101103.84;1377914;90;22333;-86
2022/12/29 07:48:29;;;;;;;42.17;20.37;;;;;;;-0.62;96.49;101104.06;1383407;89;21463;-85
2022/12/29 07:50:55;;;;;;;26.83;16.10;;;;;;;-0.56;96.23;101097.31;1534071;90;21428;-85
2022/12/29 07:53:21;;;;;;;26.20;15.83;;;;;;;-0.51;96.05;101099.28;1522719;90;21746;-83
2022/12/29 07:55:47;;;;;;;29.37;15.63;;;;;;;-0.37;96.38;101110.91;1379436;90;21481;-94
2022/12/29 07:58:14;;;;;;;24.37;14.83;;;;;;;-0.30;95.67;101107.14;1383597;90;21545;-87
2022/12/29 08:00:40;;;;;;;24.57;15.50;;;;;;;-0.22;95.39;101108.98;1377529;90;21803;-84
2022/12/29 08:03:06;;;;;;;31.17;16.43;;;;;;;-0.11;95.78;101122.41;1379311;90;21267;-87
2022/12/29 08:05:34;;;;;;;27.60;15.80;;;;;;;0.01;95.63;101122.81;1386656;89;21832;-90
2022/12/29 08:08:00;;;;;;;26.27;14.60;;;;;;;0.12;95.13;101132.33;1534599;90;21347;-88
2022/12/29 08:10:27;;;;;;;29.20;15.57;;;;;;;0.21;94.95;101139.75;1377785;90;21565;-88
2022/12/29 08:12:54;;;;;;;27.47;16.37;;;;;;;0.31;94.63;101150.62;1382941;90;21458;-88
2022/12/29 08:15:20;;;;;;;32.07;17.03;;;;;;;0.44;94.84;101151.34;1534787;90;21346;-84
2022/12/29 08:17:46;;;;;;;31.30;16.77;;;;;;;0.62;94.72;101155.37;1377698;90;21459;-86
2022/12/29 08:20:13;;;;;;;35.70;19.63;;;;;;;0.86;95.52;101155.63;1378249;90;22196;-88
2022/12/29 08:22:40;;;;;;;27.47;16.73;;;;;;;1.09;95.35;101148.52;1384314;90;21509;-86
2022/12/29 08:25:08;;;;;;;38.30;18.83;;;;;;;1.23;94.49;101146.13;1533339;90;21449;-84
2022/12/29 08:27:36;;;;;;;35.40;19.60;;;;;;;1.35;93.96;101142.98;1377007;90;21552;-84
2022/12/29 08:30:03;;;;;;;30.47;16.67;;;;;;;1.45;93.35;101147.76;1468887;90;21717;-82
2022/12/29 08:32:30;;;;;;;32.40;16.53;;;;;;;1.49;92.21;101159.27;1452204;90;21815;-83
2022/12/29 08:34:56;;;;;;;28.03;16.80;;;;;;;1.54;91.04;101159.06;1448497;90;21804;-81
2022/12/29 08:37:22;;;;;;;38.53;20.63;;;;;;;1.57;90.83;101157.61;1376589;90;21652;-83
2022/12/29 08:39:48;;;;;;;52.17;26.63;;;;;;;1.63;91.02;101163.84;1371050;90;21664;-83
2022/12/29 08:42:15;;;;;;;38.27;22.37;;;;;;;1.71;91.61;101161.72;1372048;90;21682;-82
2022/12/29 08:44:41;;;;;;;36.67;19.83;;;;;;;1.80;89.82;101146.92;1383620;90;22122;-83
2022/12/29 08:47:09;;;;;;;33.73;19.47;;;;;;;1.86;90.01;101155.37;1432137;90;23030;-81
2022/12/29 08:49:35;;;;;;;42.97;22.20;;;;;;;2.01;89.71;101158.11;1451634;90;21794;-83
2022/12/29 08:52:01;;;;;;;37.80;22.20;;;;;;;2.12;89.93;101163.25;1440885;90;22070;-83
2022/12/29 08:54:27;;;;;;;38.10;21.80;;;;;;;2.14;89.56;101157.03;1451900;90;21850;-83
2022/12/29 08:56:54;;;;;;;34.87;21.13;;;;;;;2.25;89.36;101176.94;1448609;90;21817;-84
2022/12/29 08:59:20;;;;;;;41.43;24.50;;;;;;;2.31;89.51;101171.03;1446830;90;23006;-83
2022/12/29 09:01:46;;;;;;;36.67;22.43;;;;;;;2.39;88.82;101163.66;1447913;90;22266;-82
2022/12/29 09:04:13;;;;;;;41.07;22.53;;;;;;;2.39;88.82;101163.66;1450345;90;22077;-82
2022/12/29 09:06:39;;;;;;;31.63;18.60;;;;;;;2.44;88.27;101164.25;1454302;89;22225;-84
2022/12/29 09:09:05;;;;;;;37.10;21.53;;;;;;;2.48;88.01;101152.73;1452125;89;22383;-82
2022/12/29 09:11:34;;;;;;;34.37;20.30;;;;;;;2.54;87.94;101152.42;1448674;89;22165;-82
2022/12/29 09:14:00;;;;;;;35.90;22.40;;;;;;;2.61;87.35;101156.39;1454254;90;22317;-82
2022/12/29 09:16:26;;;;;;;38.03;21.33;;;;;;;2.64;86.74;101159.31;1450554;90;22194;-81
2022/12/29 09:18:53;;;;;;;39.10;23.13;;;;;;;2.67;86.70;101156.55;1453002;90;23268;-82
2022/12/29 09:21:19;;;;;;;48.83;25.83;;;;;;;2.70;86.73;101150.72;1448719;90;22173;-82
2022/12/29 09:23:45;;;;;;;53.10;26.73;;;;;;;2.75;86.98;101144.39;1455981;90;22111;-82
2022/12/29 09:27:23;;;;;;;47.83;26.20;;;;;;;2.77;86.73;101132.09;1457092;90;22179;-81
2022/12/29 09:29:50;;;;;;;39.33;23.10;;;;;;;2.78;86.22;101130.69;1448514;90;22279;-82
2022/12/29 09:32:16;;;;;;;77.13;36.83;;;;;;;2.82;85.76;101120.91;1453867;90;22240;-82
2022/12/29 09:34:42;;;;;;;84.50;38.50;;;;;;;2.85;85.62;101122.05;1452945;90;22970;-82
2022/12/29 09:37:08;;;;;;;46.37;25.63;;;;;;;2.89;85.82;101110.53;1455340;90;23184;-81
2022/12/29 09:39:36;;;;;;;37.00;20.80;;;;;;;2.98;85.55;101111.80;1455600;90;22116;-82
2022/12/29 09:42:34;;;;;;;32.77;16.00;;;;;;;3.15;86.57;101107.81;1450125;90;22971;-82
2022/12/29 09:45:24;;;;;;;31.07;17.73;;;;;;;3.35;86.40;101100.19;1452062;89;22139;-80
2022/12/29 09:47:51;;;;;;;30.70;18.20;;;;;;;3.58;84.68;101090.58;1441219;90;22373;-81
2022/12/29 09:50:37;;;;;;;32.73;19.97;;;;;;;3.74;83.82;101089.70;1449531;90;22319;-83
2022/12/29 09:53:12;;;;;;;33.40;19.13;;;;;;;3.89;84.13;101086.70;1446922;90;21332;-84
2022/12/29 09:55:53;;;;;;;37.07;20.60;;;;;;;4.61;82.14;101079.80;1446794;90;21456;-82
2022/12/29 09:58:43;;;;;;;;;;;;;;;5.00;81.46;101080.42;1454100;90;22381;-83
2022/12/29 10:01:40;;;;;;;34.33;19.37;;;;;;;5.54;74.44;101082.27;1454278;89;20246;-83
2022/12/29 10:04:07;;;;;;;38.80;23.93;;;;;;;5.59;78.61;101074.95;1443700;90;21581;-83
2022/12/29 10:06:59;;;;;;;35.33;20.57;;;;;;;6.02;75.95;101069.52;1446407;88;21383;-83
2022/12/29 10:09:49;;;;;;;35.00;21.50;;;;;;;6.28;71.22;101068.60;1449405;89;21622;-83
2022/12/29 10:12:30;;;;;;;41.87;23.40;;;;;;;6.73;71.53;101057.63;1449986;89;21472;-84
2022/12/29 10:15:19;;;;;;;34.18;20.10;;;;;;;7.19;72.68;101063.13;1452739;90;21494;-84
2022/12/29 10:18:22;;;;;;;42.63;23.90;;;;;;;7.59;71.40;101062.84;1445836;89;21434;-83
2022/12/29 10:20:57;;;;;;;29.97;16.70;;;;;;;7.90;67.91;101069.31;1446607;89;22226;-83
2022/12/29 10:23:48;;;;;;;30.23;18.07;;;;;;;8.34;68.42;101055.03;1452181;89;21368;-83
2022/12/29 10:26:26;;;;;;;62.83;34.10;;;;;;;8.53;64.67;101061.94;1453719;89;22292;-84
2022/12/29 10:29:06;;;;;;;64.20;35.30;;;;;;;8.48;63.12;101053.53;1449491;89;21376;-83
2022/12/29 10:32:00;;;;;;;35.17;20.97;;;;;;;8.36;66.07;101053.97;1456120;88;21360;-83
2022/12/29 10:34:38;;;;;;;37.47;22.63;;;;;;;8.08;63.41;101053.08;1451473;88;21369;-83
2022/12/29 10:37:31;;;;;;;28.73;19.63;;;;;;;7.65;62.74;101048.38;1451668;89;21435;-83
2022/12/29 10:39:59;;;;;;;23.97;16.40;;;;;;;7.35;61.87;101047.53;1449332;88;21325;-83
2022/12/29 10:42:30;;;;;;;25.33;16.37;;;;;;;7.01;64.23;101048.63;1454232;89;21361;-83
2022/12/29 10:44:57;;;;;;;29.15;15.53;;;;;;;6.83;65.66;101048.16;1452176;89;21434;-83
2022/12/29 10:47:28;;;;;;;25.00;15.70;;;;;;;6.67;66.34;101053.64;1454059;89;22168;-83
2022/12/29 10:49:54;;;;;;;29.07;18.37;;;;;;;6.59;67.21;101052.48;1456562;89;21581;-83
2022/12/29 10:52:23;;;;;;;30.80;17.97;;;;;;;6.44;66.44;101053.08;1456180;88;22410;-83
2022/12/29 10:55:06;;;;;;;26.20;16.17;;;;;;;6.33;67.34;101050.73;1447833;89;22894;-83
2022/12/29 10:57:40;;;;;;;22.23;14.03;;;;;;;6.25;67.36;101050.41;1458255;89;22249;-82
2022/12/29 11:00:20;;;;;;;22.53;13.37;;;;;;;6.09;67.11;101044.02;1451262;89;21383;-82
2022/12/29 11:03:24;;;;;;;22.30;13.13;;;;;;;5.98;67.02;101039.95;1448788;89;21391;-83
2022/12/29 11:06:20;;;;;;;23.07;14.10;;;;;;;5.96;67.67;101044.98;1448871;89;22493;-83
2022/12/29 11:08:55;;;;;;;20.47;11.93;;;;;;;6.41;68.33;101023.06;1454202;89;22329;-83
2022/12/29 11:11:29;;;;;;;18.70;11.50;;;;;;;6.69;67.89;101008.34;1449722;90;21280;-82
2022/12/29 11:14:00;;;;;;;17.97;11.23;;;;;;;6.80;65.56;101008.08;1451286;89;21338;-83
2022/12/29 11:16:34;;;;;;;20.82;12.37;;;;;;;7.05;67.35;101008.00;1446489;90;21624;-83
2022/12/29 11:19:01;;;;;;;19.40;12.33;;;;;;;7.12;67.01;101010.54;1458432;90;22454;-83
2022/12/29 11:21:41;;;;;;;18.53;11.50;;;;;;;7.08;66.45;100998.56;1449087;90;21420;-84
2022/12/29 11:24:27;;;;;;;22.13;12.40;;;;;;;6.99;65.61;100987.36;1456186;90;21427;-85
2022/12/29 11:26:57;;;;;;;23.27;13.00;;;;;;;6.89;65.28;100960.88;1459029;89;22464;-84
2022/12/29 11:29:30;;;;;;;18.33;12.17;;;;;;;7.13;66.92;100974.05;1448142;89;21603;-84
2022/12/29 11:31:59;;;;;;;19.93;12.83;;;;;;;7.48;66.16;100997.42;1451499;90;21456;-84
2022/12/29 11:34:35;;;;;;;16.50;10.80;;;;;;;7.74;65.75;100996.79;1455194;90;21433;-84
2022/12/29 11:37:17;;;;;;;15.87;11.10;;;;;;;7.96;63.25;100995.53;1453716;90;21567;-84
2022/12/29 11:40:01;;;;;;;16.20;9.70;;;;;;;8.22;63.28;100986.94;1452948;90;22489;-85
2022/12/29 11:42:35;;;;;;;14.43;10.33;;;;;;;8.66;63.95;100980.48;1455358;89;21376;-84
2022/12/29 11:45:16;;;;;;;19.20;10.77;;;;;;;8.95;63.32;100977.70;1451858;90;21509;-82
2022/12/29 11:47:46;;;;;;;16.62;11.03;;;;;;;9.00;62.83;100978.14;1450850;90;22240;-81
2022/12/29 11:50:20;;;;;;;20.77;11.22;;;;;;;8.75;59.75;100986.37;1448529;90;21478;-83
2022/12/29 11:52:48;;;;;;;17.83;11.17;;;;;;;8.47;59.90;100985.91;1454622;90;21376;-83
2022/12/29 11:55:27;;;;;;;13.27;10.37;;;;;;;8.27;62.11;100983.95;1447359;90;22211;-83
2022/12/29 11:57:57;;;;;;;20.77;12.40;;;;;;;7.94;61.68;100981.66;1454351;90;21581;-83
2022/12/29 12:00:26;;;;;;;22.95;16.65;;;;;;;7.77;62.84;100984.70;1450465;90;21354;-82
2022/12/29 12:03:14;;;;;;;39.30;28.50;;;;;;;7.56;63.46;100986.67;1455139;90;21604;-82
2022/12/29 12:05:53;;;;;;;27.87;16.50;;;;;;;7.35;63.91;100980.38;1457027;89;22351;-82